7  °C
Temperature
3  °C
  Dewpoint
76  %
   Humidity
Temp | Dewpoint | Humidity
5  km/h
Wind Speed
3  mph
Wind Speed
3  kts
Wind Speed
270°
Due West

Wind Speed
Clear
Conditions
Pressure 1029.92 (hPa) - 30.41 (in)
Visibility 6.2 (mi) - 10.0 (km)

Current Conditions
EGBJ
Location 6km (3.2mi)
Metar :EGBJ 181420Z 27003KT CAVOK 07/03 Q1030
Sat 18th January 14:20 pm

Airport
https://www.checkwx.com/
  Metar Aviation API Data Provided by https://www.checkwx.com/ CSS/SVG/PHP scripts by weather34.com © 2015-2020